Kings Store, Virginia
Current Conditions -  °F | °C
As of 2:15 PM on Friday 21 Nov 2014 (Local Time) from KBCB Reporting Station
Clear Clear  
Wind Chill: 34°   Ceiling: Unl
Heat Index: 39°   Visibility: 10mi
Dew Point: 12°   Wind: 7mph
Humidity: 33%   Direction: 300°WNW
Pressure: 30.39"   Gusts: NA
Location:  37.0492°N, 80.1572°W
Report Text: KBCB 211915Z AUTO 30006KT 10SM CLR 04/M11 A3039 RMK AO2
Loading
Personal Weather Stations






























Interactive Weather Map New forecast layout! Learn more

10-Day Weather Forecast

Advertisements
Track Severe Weather on mobile